MMVR/VER METAR and TAF weather

Enter ICAO airport designator
Station Type Date Time Source
MMVR METAR 2020/04/09 11:07 UTC NOAA

MMVR 091107Z RTD 00000KT 3SM BR HZ SKC 24/24 A2983 RMK ISOL AC RTS


Station Type Date Time Source
MMVR Decoded METAR 2020/04/09 11:07 UTC NOAA

Veracruz / Las Bajadas / General Heriberto Jara, Mexico (MMVR) 19-09N 096-11W
Apr 09, 2020 - 07:07 AM EDT / 2020.04.09 1107 UTC
Wind: Calm:0
Visibility: 3 mile(s):0
Sky conditions: clear
Weather: mist; haze
Temperature: 75 F (24 C)
Dew Point: 75 F (24 C)
Relative Humidity: 100%
Pressure (altimeter): 29.83 in. Hg (1010 hPa)
ob: MMVR 091107Z RTD 00000KT 3SM BR HZ SKC 24/24 A2983 RMK ISOL AC RTS
cycle: 11

Station Type Date Time Source
MMVR TAF 2020/04/09 06:40 UTC NOAA

TAF MMVR 090433Z 0906/1006 00000KT 6SM HZ SCT012 BKN250 TX34/0921Z TN25/0912Z
FM091600 08008KT P6SM SCT015 SCT250
FM092200 08010KT P6SM SCT020CB BKN080 PROB40 0923/1003 5SM TSRA BKN015CB
FM100300 06005KT P6SM SCT020 BKN080

Example: see airport list